createdAt,value
2022-08-24T00:00:27.345Z,95.54
2022-08-24T00:01:27.335Z,95.43
2022-08-24T00:02:27.566Z,94.73
2022-08-24T00:03:31.756Z,94.73
2022-08-24T00:04:28.361Z,94.63
2022-08-24T00:05:27.328Z,94.47
2022-08-24T00:06:27.329Z,95.03
2022-08-24T00:07:28.154Z,95.38
2022-08-24T00:08:27.316Z,94.83
2022-08-24T00:09:27.312Z,95.03
2022-08-24T00:10:27.309Z,95.23
2022-08-24T00:11:27.304Z,95.23
2022-08-24T00:12:27.311Z,95.14
2022-08-24T00:13:29.451Z,94.93
2022-08-24T00:14:27.315Z,94.63
2022-08-24T00:15:27.291Z,94.67
2022-08-24T00:16:27.330Z,94.67
2022-08-24T00:17:27.286Z,94.47
2022-08-24T00:18:27.289Z,95.38
2022-08-24T00:19:27.280Z,94.78
2022-08-24T00:20:27.277Z,95.18
2022-08-24T00:21:27.274Z,95.28
2022-08-24T00:22:27.270Z,95.89
2022-08-24T00:23:27.268Z,95.78
2022-08-24T00:24:27.263Z,95.68
2022-08-24T00:25:27.260Z,95.48
2022-08-24T00:26:28.937Z,95.78
2022-08-24T00:27:27.254Z,95.98
2022-08-24T00:28:27.253Z,95.89
2022-08-24T00:29:27.246Z,95.68
2022-08-24T00:30:27.246Z,95.48
2022-08-24T00:31:27.268Z,95.58
2022-08-24T00:32:27.238Z,95.98
2022-08-24T00:33:27.238Z,96.80
2022-08-24T00:34:27.234Z,96.69
2022-08-24T00:35:27.229Z,96.84
2022-08-24T00:36:27.226Z,97.00
2022-08-24T00:37:27.311Z,97.00
2022-08-24T00:38:27.793Z,96.19
2022-08-24T00:39:27.216Z,96.59
2022-08-24T00:40:27.246Z,97.05
2022-08-24T00:41:27.211Z,97.10
2022-08-24T00:42:27.207Z,96.84
2022-08-24T00:43:27.204Z,96.69
2022-08-24T00:44:27.200Z,96.89
2022-08-24T00:45:27.237Z,96.94
2022-08-24T00:46:27.194Z,96.94
2022-08-24T00:47:27.277Z,96.94
2022-08-24T00:48:27.188Z,97.05
2022-08-24T00:49:27.188Z,96.03
2022-08-24T00:50:27.184Z,96.19
2022-08-24T00:51:27.178Z,96.84
2022-08-24T00:52:27.175Z,96.84
2022-08-24T00:53:27.174Z,97.75
2022-08-24T00:54:27.169Z,97.25
2022-08-24T00:55:27.164Z,97.34
2022-08-24T00:56:27.164Z,97.85
2022-08-24T00:57:27.163Z,97.55
2022-08-24T00:58:27.171Z,97.45
2022-08-24T00:59:27.153Z,97.45
2022-08-24T01:00:27.159Z,97.14
2022-08-24T01:01:27.179Z,96.94
2022-08-24T01:02:27.291Z,96.84
2022-08-24T01:03:27.143Z,96.54
2022-08-24T01:04:27.136Z,96.89
2022-08-24T01:05:27.133Z,96.94
2022-08-24T01:06:27.130Z,96.89
2022-08-24T01:07:27.131Z,96.89
2022-08-24T01:08:27.125Z,96.89
2022-08-24T01:09:27.120Z,97.09
2022-08-24T01:10:27.122Z,96.78
2022-08-24T01:11:27.116Z,96.98
2022-08-24T01:12:27.111Z,96.69
2022-08-24T01:13:27.105Z,97.09
2022-08-24T01:14:27.102Z,97.29
2022-08-24T01:15:27.099Z,97.29
2022-08-24T01:16:27.183Z,97.39
2022-08-24T01:17:27.095Z,96.98
2022-08-24T01:18:27.091Z,97.09
2022-08-24T01:19:27.092Z,96.89
2022-08-24T01:20:27.092Z,96.58
2022-08-24T01:21:27.081Z,96.69
2022-08-24T01:22:27.081Z,96.78
2022-08-24T01:23:27.070Z,96.89
2022-08-24T01:24:27.073Z,97.09
2022-08-24T01:25:27.070Z,97.49
2022-08-24T01:26:27.065Z,98.00
2022-08-24T01:27:28.182Z,98.61
2022-08-24T01:28:27.516Z,98.30
2022-08-24T01:29:27.057Z,98.20
2022-08-24T01:30:30.701Z,97.90
2022-08-24T01:31:27.110Z,97.80
2022-08-24T01:32:27.044Z,97.90
2022-08-24T01:33:27.042Z,98.00
2022-08-24T01:34:27.039Z,97.60
2022-08-24T01:35:27.034Z,97.49
2022-08-24T01:36:28.449Z,97.29
2022-08-24T01:37:27.028Z,97.44
2022-08-24T01:38:27.022Z,97.60
2022-08-24T01:39:27.028Z,97.49
2022-08-24T01:40:27.037Z,97.49
2022-08-24T01:41:29.176Z,97.60
2022-08-24T01:42:27.009Z,97.54
2022-08-24T01:43:27.006Z,97.80
2022-08-24T01:44:27.005Z,97.80
2022-08-24T01:45:27.002Z,97.60
2022-08-24T01:46:27.020Z,97.39
2022-08-24T01:47:26.990Z,97.39
2022-08-24T01:48:26.989Z,97.44
2022-08-24T01:49:26.991Z,97.74
2022-08-24T01:50:26.983Z,97.64
2022-08-24T01:51:26.983Z,97.60
2022-08-24T01:52:38.915Z,97.90
2022-08-24T01:53:26.972Z,98.71
2022-08-24T01:54:26.970Z,98.71
2022-08-24T01:55:26.969Z,98.65
2022-08-24T01:56:26.960Z,98.10
2022-08-24T01:57:26.959Z,98.05
2022-08-24T01:58:26.956Z,97.74
2022-08-24T01:59:26.962Z,98.55
2022-08-24T02:00:26.953Z,98.30
2022-08-24T02:01:27.018Z,98.61
2022-08-24T02:02:26.960Z,98.30
2022-08-24T02:03:29.632Z,98.81
2022-08-24T02:04:26.935Z,98.81
2022-08-24T02:05:26.933Z,99.01
2022-08-24T02:06:26.928Z,98.71
2022-08-24T02:07:26.923Z,98.71
2022-08-24T02:08:26.920Z,98.40
2022-08-24T02:09:30.418Z,98.71
2022-08-24T02:10:26.915Z,98.71
2022-08-24T02:11:26.909Z,99.41
2022-08-24T02:12:26.907Z,99.41
2022-08-24T02:13:26.904Z,99.41
2022-08-24T02:14:26.905Z,99.41
2022-08-24T02:15:26.897Z,99.01
2022-08-24T02:16:26.964Z,99.32
2022-08-24T02:17:26.896Z,99.32
2022-08-24T02:18:26.886Z,99.32
2022-08-24T02:19:26.885Z,99.32
2022-08-24T02:20:26.886Z,98.96
2022-08-24T02:21:26.877Z,99.37
2022-08-24T02:22:26.873Z,98.96
2022-08-24T02:23:26.868Z,99.27
2022-08-24T02:24:26.867Z,98.76
2022-08-24T02:25:26.865Z,98.66
2022-08-24T02:26:26.859Z,98.76
2022-08-24T02:27:26.860Z,98.25
2022-08-24T02:28:26.851Z,98.66
2022-08-24T02:29:26.847Z,98.56
2022-08-24T02:30:26.846Z,98.66
2022-08-24T02:31:26.917Z,98.76
2022-08-24T02:32:26.837Z,98.66
2022-08-24T02:33:26.834Z,99.07
2022-08-24T02:34:26.833Z,98.25
2022-08-24T02:35:26.831Z,98.56
2022-08-24T02:36:26.830Z,98.76
2022-08-24T02:37:26.820Z,98.66
2022-08-24T02:38:26.815Z,98.36
2022-08-24T02:39:26.813Z,98.25
2022-08-24T02:40:26.867Z,98.36
2022-08-24T02:41:26.805Z,98.66
2022-08-24T02:42:26.816Z,98.66
2022-08-24T02:43:26.810Z,98.56
2022-08-24T02:44:26.795Z,98.66
2022-08-24T02:45:26.791Z,98.66
2022-08-24T02:46:26.827Z,98.56
2022-08-24T02:47:38.063Z,98.56
2022-08-24T02:48:26.782Z,97.85
2022-08-24T02:49:26.775Z,97.34
2022-08-24T02:50:26.772Z,97.49
2022-08-24T02:51:26.768Z,97.69
2022-08-24T02:52:26.768Z,98.10
2022-08-24T02:53:26.760Z,98.10
2022-08-24T02:54:26.756Z,98.50
2022-08-24T02:55:26.756Z,98.71
2022-08-24T02:56:26.751Z,98.61
2022-08-24T02:57:26.747Z,98.50
2022-08-24T02:58:26.743Z,98.85
2022-08-24T02:59:26.743Z,98.91
2022-08-24T03:00:26.737Z,98.71
2022-08-24T03:01:30.373Z,98.91
2022-08-24T03:02:26.757Z,98.85
2022-08-24T03:03:26.726Z,98.85
2022-08-24T03:04:26.717Z,98.55
2022-08-24T03:05:26.720Z,98.35
2022-08-24T03:06:26.714Z,98.75
2022-08-24T03:07:26.711Z,98.85
2022-08-24T03:08:26.713Z,98.65
2022-08-24T03:09:28.921Z,98.65
2022-08-24T03:10:26.703Z,98.65
2022-08-24T03:11:28.216Z,98.96
2022-08-24T03:12:26.695Z,98.75
2022-08-24T03:13:26.691Z,98.65
2022-08-24T03:14:26.686Z,98.65
2022-08-24T03:15:26.716Z,98.85
2022-08-24T03:16:26.680Z,98.75
2022-08-24T03:17:26.678Z,99.16
2022-08-24T03:18:26.672Z,99.36
2022-08-24T03:19:26.672Z,98.96
2022-08-24T03:20:26.664Z,99.16
2022-08-24T03:21:26.664Z,98.96
2022-08-24T03:22:26.665Z,99.16
2022-08-24T03:23:26.654Z,98.96
2022-08-24T03:24:26.652Z,99.16
2022-08-24T03:25:26.648Z,98.90
2022-08-24T03:26:26.643Z,99.21
2022-08-24T03:27:26.639Z,98.70
2022-08-24T03:28:26.636Z,98.90
2022-08-24T03:29:26.632Z,98.85
2022-08-24T03:30:26.675Z,99.10
2022-08-24T03:31:26.628Z,99.01
2022-08-24T03:32:26.619Z,98.90
2022-08-24T03:33:26.616Z,98.90
2022-08-24T03:34:26.614Z,98.90
2022-08-24T03:35:26.612Z,98.90
2022-08-24T03:36:26.616Z,98.80
2022-08-24T03:37:26.605Z,98.70
2022-08-24T03:38:26.597Z,98.90
2022-08-24T03:39:26.594Z,98.90
2022-08-24T03:40:26.624Z,98.70
2022-08-24T03:41:26.589Z,99.01
2022-08-24T03:42:26.583Z,98.80
2022-08-24T03:43:26.577Z,98.70
2022-08-24T03:44:26.575Z,98.74
2022-08-24T03:45:26.571Z,98.80
2022-08-24T03:46:26.567Z,98.90
2022-08-24T03:47:26.565Z,98.70
2022-08-24T03:48:26.581Z,99.21
2022-08-24T03:49:26.557Z,98.95
2022-08-24T03:50:26.553Z,99.05
2022-08-24T03:51:26.548Z,98.95
2022-08-24T03:52:28.245Z,98.95
2022-08-24T03:53:26.542Z,98.74
2022-08-24T03:54:26.537Z,98.95
2022-08-24T03:55:26.532Z,98.74
2022-08-24T03:56:26.533Z,98.54
2022-08-24T03:57:26.525Z,98.85
2022-08-24T03:58:26.521Z,98.85
2022-08-24T03:59:26.524Z,98.44
2022-08-24T04:00:26.515Z,98.54
2022-08-24T04:01:26.550Z,98.85
2022-08-24T04:02:29.066Z,98.74
2022-08-24T04:03:26.504Z,98.74
2022-08-24T04:04:26.501Z,98.59
2022-08-24T04:05:26.497Z,98.85
2022-08-24T04:06:26.490Z,98.59
2022-08-24T04:07:26.490Z,98.69
2022-08-24T04:08:26.483Z,98.74
2022-08-24T04:09:26.482Z,99.10
2022-08-24T04:10:26.481Z,99.25
2022-08-24T04:11:26.470Z,99.05
2022-08-24T04:12:26.468Z,98.85
2022-08-24T04:13:26.465Z,98.85
2022-08-24T04:14:27.516Z,98.74
2022-08-24T04:15:26.456Z,98.95
2022-08-24T04:16:26.501Z,99.05
2022-08-24T04:17:26.452Z,98.85
2022-08-24T04:18:28.707Z,98.74
2022-08-24T04:19:26.440Z,98.85
2022-08-24T04:20:26.445Z,98.85
2022-08-24T04:21:26.433Z,98.85
2022-08-24T04:22:26.429Z,98.34
2022-08-24T04:23:39.355Z,98.65
2022-08-24T04:24:26.425Z,98.65
2022-08-24T04:25:26.418Z,98.85
2022-08-24T04:26:36.476Z,98.44
2022-08-24T04:27:26.410Z,97.83
2022-08-24T04:28:26.432Z,98.14
2022-08-24T04:29:26.401Z,98.03
2022-08-24T04:30:26.410Z,98.54
2022-08-24T04:31:26.417Z,98.85
2022-08-24T04:32:26.392Z,98.74
2022-08-24T04:33:26.388Z,98.60
2022-08-24T04:34:26.383Z,98.60
2022-08-24T04:35:26.380Z,98.70
2022-08-24T04:36:26.375Z,98.50
2022-08-24T04:37:28.073Z,98.09
2022-08-24T04:38:26.368Z,97.99
2022-08-24T04:39:26.364Z,97.03
2022-08-24T04:40:26.416Z,97.58
2022-08-24T04:41:31.487Z,97.24
2022-08-24T04:42:26.354Z,97.24
2022-08-24T04:43:26.350Z,97.34
2022-08-24T04:44:26.346Z,97.24
2022-08-24T04:45:26.405Z,97.14
2022-08-24T04:46:26.338Z,96.89
2022-08-24T04:47:26.338Z,96.98
2022-08-24T04:48:26.331Z,96.48
2022-08-24T04:49:26.326Z,96.64
2022-08-24T04:50:26.325Z,96.89
2022-08-24T04:51:26.319Z,96.28
2022-08-24T04:52:26.318Z,96.23
2022-08-24T04:53:26.316Z,96.08
2022-08-24T04:54:26.316Z,95.73
2022-08-24T04:55:26.307Z,95.93
2022-08-24T04:56:26.327Z,96.03
2022-08-24T04:57:26.300Z,95.63
2022-08-24T04:58:26.294Z,95.43
2022-08-24T04:59:26.289Z,95.07
2022-08-24T05:00:26.287Z,94.92
2022-08-24T05:01:26.289Z,95.07
2022-08-24T05:02:26.315Z,95.07
2022-08-24T05:03:26.279Z,94.57
2022-08-24T05:04:26.273Z,94.73
2022-08-24T05:05:26.272Z,95.38
2022-08-24T05:06:26.265Z,94.27
2022-08-24T05:07:26.265Z,94.12
2022-08-24T05:08:26.259Z,94.53
2022-08-24T05:09:26.268Z,94.93
2022-08-24T05:10:26.253Z,94.32
2022-08-24T05:11:26.249Z,95.14
2022-08-24T05:12:26.240Z,95.03
2022-08-24T05:13:26.241Z,94.93
2022-08-24T05:14:28.797Z,94.53
2022-08-24T05:15:26.232Z,94.12
2022-08-24T05:16:26.269Z,95.29
2022-08-24T05:17:26.224Z,94.32
2022-08-24T05:18:26.221Z,95.39
2022-08-24T05:19:26.217Z,94.48
2022-08-24T05:20:26.215Z,94.38
2022-08-24T05:21:26.210Z,94.89
2022-08-24T05:22:26.206Z,94.04
2022-08-24T05:23:26.205Z,93.93
2022-08-24T05:24:26.202Z,94.04
2022-08-24T05:25:26.195Z,93.84
2022-08-24T05:26:26.195Z,93.93
2022-08-24T05:27:26.191Z,94.04
2022-08-24T05:28:26.330Z,93.69
2022-08-24T05:29:26.184Z,93.79
2022-08-24T05:30:26.180Z,93.59
2022-08-24T05:31:26.215Z,92.88
2022-08-24T05:32:26.172Z,93.18
2022-08-24T05:33:26.175Z,92.98
2022-08-24T05:34:26.167Z,93.54
2022-08-24T05:35:26.167Z,92.94
2022-08-24T05:36:26.164Z,92.43
2022-08-24T05:37:26.156Z,92.74
2022-08-24T05:38:26.154Z,92.63
2022-08-24T05:39:26.150Z,92.09
2022-08-24T05:40:26.187Z,91.69
2022-08-24T05:41:26.142Z,91.74
2022-08-24T05:42:26.140Z,91.44
2022-08-24T05:43:26.136Z,90.49
2022-08-24T05:44:30.396Z,90.09
2022-08-24T05:45:26.131Z,89.79
2022-08-24T05:46:26.169Z,88.84
2022-08-24T05:47:26.126Z,88.84
2022-08-24T05:48:26.121Z,89.24
2022-08-24T05:49:26.118Z,88.49
2022-08-24T05:50:26.113Z,88.29
2022-08-24T05:51:26.113Z,87.79
2022-08-24T05:52:26.110Z,87.49
2022-08-24T05:53:26.105Z,87.69
2022-08-24T05:54:26.107Z,87.39
2022-08-24T05:55:26.101Z,87.89
2022-08-24T05:56:31.323Z,87.95
2022-08-24T05:57:26.094Z,87.35
2022-08-24T05:58:31.006Z,87.45
2022-08-24T05:59:26.090Z,86.94
2022-08-24T06:00:26.096Z,87.04
2022-08-24T06:01:26.151Z,87.45
2022-08-24T06:02:26.230Z,86.54
2022-08-24T06:03:26.081Z,86.94
2022-08-24T06:04:26.076Z,87.21
2022-08-24T06:05:26.076Z,87.15
2022-08-24T06:06:26.074Z,86.94
2022-08-24T06:07:26.067Z,87.35
2022-08-24T06:08:26.069Z,87.85
2022-08-24T06:09:26.065Z,88.35
2022-08-24T06:10:37.687Z,88.49
2022-08-24T06:11:30.188Z,88.49
2022-08-24T06:12:26.057Z,88.75
2022-08-24T06:13:26.054Z,89.10
2022-08-24T06:14:27.169Z,89.10
2022-08-24T06:15:26.048Z,89.46
2022-08-24T06:16:26.091Z,89.15
2022-08-24T06:17:26.139Z,88.75
2022-08-24T06:18:26.040Z,87.71
2022-08-24T06:19:26.038Z,88.05
2022-08-24T06:20:26.075Z,88.45
2022-08-24T06:21:26.033Z,89.20
2022-08-24T06:22:26.031Z,91.15
2022-08-24T06:23:26.028Z,92.71
2022-08-24T06:24:26.028Z,94.16
2022-08-24T06:25:26.025Z,94.76
2022-08-24T06:26:26.020Z,94.26
2022-08-24T06:27:26.020Z,94.06
2022-08-24T06:28:26.014Z,94.26
2022-08-24T06:29:26.016Z,94.36
2022-08-24T06:30:30.302Z,94.56
2022-08-24T06:31:26.070Z,94.52
2022-08-24T06:32:26.095Z,94.72
2022-08-24T06:33:26.008Z,94.62
2022-08-24T06:34:26.070Z,94.57
2022-08-24T06:35:25.999Z,94.67
2022-08-24T06:36:25.996Z,93.87
2022-08-24T06:37:25.993Z,94.33
2022-08-24T06:38:25.988Z,93.42
2022-08-24T06:39:25.986Z,92.82
2022-08-24T06:40:26.274Z,92.41
2022-08-24T06:41:25.987Z,91.47
2022-08-24T06:42:25.981Z,92.57
2022-08-24T06:43:25.986Z,92.47
2022-08-24T06:44:25.976Z,91.97
2022-08-24T06:45:25.977Z,91.67
2022-08-24T06:46:29.476Z,91.87
2022-08-24T06:47:25.971Z,91.42
2022-08-24T06:48:25.968Z,91.63
2022-08-24T06:49:25.965Z,91.52
2022-08-24T06:50:26.010Z,91.32
2022-08-24T06:51:25.959Z,91.52
2022-08-24T06:52:25.957Z,91.93
2022-08-24T06:53:25.958Z,92.43
2022-08-24T06:54:25.956Z,92.37
2022-08-24T06:55:25.949Z,92.83
2022-08-24T06:56:25.950Z,92.63
2022-08-24T06:57:25.946Z,92.43
2022-08-24T06:58:25.945Z,92.33
2022-08-24T06:59:25.941Z,92.33
2022-08-24T07:00:25.940Z,91.88
2022-08-24T07:01:26.013Z,92.08
2022-08-24T07:02:25.943Z,91.88
2022-08-24T07:03:25.951Z,91.38
2022-08-24T07:04:28.095Z,91.28
2022-08-24T07:05:25.931Z,92.08
2022-08-24T07:06:25.926Z,92.24
2022-08-24T07:07:25.925Z,92.29
2022-08-24T07:08:25.924Z,92.44
2022-08-24T07:09:25.924Z,92.38
2022-08-24T07:10:25.968Z,92.34
2022-08-24T07:11:25.920Z,92.74
2022-08-24T07:12:25.914Z,92.34
2022-08-24T07:13:25.913Z,92.89
2022-08-24T07:14:25.909Z,92.38
2022-08-24T07:15:25.915Z,92.49
2022-08-24T07:16:25.975Z,92.49
2022-08-24T07:17:25.909Z,93.24
2022-08-24T07:18:25.904Z,92.74
2022-08-24T07:19:25.905Z,92.34
2022-08-24T07:20:25.902Z,92.84
2022-08-24T07:21:25.898Z,92.04
2022-08-24T07:22:25.895Z,92.44
2022-08-24T07:23:41.181Z,92.14
2022-08-24T07:24:25.894Z,91.84
2022-08-24T07:25:25.890Z,91.94
2022-08-24T07:26:25.888Z,92.24
2022-08-24T07:27:25.885Z,93.15
2022-08-24T07:28:27.726Z,93.69
2022-08-24T07:29:46.415Z,93.89
2022-08-24T07:30:27.704Z,94.29
2022-08-24T07:31:25.929Z,93.85
2022-08-24T07:32:25.877Z,93.35
2022-08-24T07:33:25.874Z,93.04
2022-08-24T07:34:25.869Z,92.94
2022-08-24T07:35:25.872Z,92.34
2022-08-24T07:36:25.870Z,92.34
2022-08-24T07:37:33.426Z,92.80
2022-08-24T07:38:25.865Z,92.20
2022-08-24T07:39:25.867Z,92.20
2022-08-24T07:40:25.883Z,91.39
2022-08-24T07:42:31.744Z,91.60
2022-08-24T07:43:25.856Z,92.00
2022-08-24T07:44:25.855Z,91.30
2022-08-24T07:45:25.855Z,91.45
2022-08-24T07:46:25.895Z,90.95
2022-08-24T07:47:39.036Z,90.95
2022-08-24T07:48:25.849Z,90.00
2022-08-24T07:49:36.920Z,90.11
2022-08-24T07:50:25.847Z,90.31
2022-08-24T07:51:25.874Z,90.20
2022-08-24T07:52:25.838Z,89.90
2022-08-24T07:53:32.536Z,89.81
2022-08-24T07:54:25.842Z,89.61
2022-08-24T07:55:25.839Z,88.66
2022-08-24T07:56:25.834Z,88.76
2022-08-24T07:57:25.834Z,88.76
2022-08-24T07:58:25.833Z,89.40
2022-08-24T07:59:25.830Z,90.20
2022-08-24T08:00:25.829Z,89.46
2022-08-24T08:01:25.873Z,89.66
2022-08-24T08:02:29.310Z,89.86
2022-08-24T08:03:25.825Z,88.42
2022-08-24T08:04:25.822Z,87.62
2022-08-24T08:05:25.830Z,87.27
2022-08-24T08:06:25.823Z,86.73
2022-08-24T08:07:25.819Z,86.29
2022-08-24T08:08:25.882Z,86.09
2022-08-24T08:09:25.816Z,84.35
2022-08-24T08:10:25.815Z,84.45
2022-08-24T08:11:25.811Z,84.15
2022-08-24T08:12:25.813Z,84.05
2022-08-24T08:13:25.814Z,83.65
2022-08-24T08:14:25.807Z,83.71
2022-08-24T08:15:25.847Z,83.41
2022-08-24T08:16:25.826Z,82.71
2022-08-24T08:17:25.809Z,84.25
2022-08-24T08:18:25.807Z,83.69
2022-08-24T08:19:25.806Z,84.69
2022-08-24T08:20:25.805Z,84.69
2022-08-24T08:21:25.803Z,84.89
2022-08-24T08:22:25.805Z,85.23
2022-08-24T08:23:25.801Z,85.93
2022-08-24T08:24:25.823Z,85.99
2022-08-24T08:25:25.800Z,84.29
2022-08-24T08:26:25.803Z,84.99
2022-08-24T08:27:25.798Z,84.99
2022-08-24T08:28:33.264Z,84.69
2022-08-24T08:29:25.804Z,84.53
2022-08-24T08:30:25.803Z,85.97
2022-08-24T08:31:25.822Z,86.43
2022-08-24T08:32:25.796Z,86.73
2022-08-24T08:34:25.793Z,85.69
2022-08-24T08:35:25.797Z,85.65
2022-08-24T08:36:25.789Z,85.05
2022-08-24T08:37:26.202Z,85.15
2022-08-24T08:38:25.793Z,84.65
2022-08-24T08:39:25.791Z,84.35
2022-08-24T08:40:25.842Z,83.31
2022-08-24T08:41:26.737Z,83.31
2022-08-24T08:42:25.787Z,82.71
2022-08-24T08:43:25.788Z,82.61
2022-08-24T08:44:25.790Z,82.57
2022-08-24T08:45:25.784Z,82.47
2022-08-24T08:46:25.816Z,82.67
2022-08-24T08:47:25.787Z,82.03
2022-08-24T08:48:25.784Z,81.93
2022-08-24T08:49:25.784Z,81.63
2022-08-24T08:50:25.792Z,81.10
2022-08-24T08:51:25.785Z,79.50
2022-08-24T08:52:25.784Z,79.80
2022-08-24T08:53:25.780Z,80.44
2022-08-24T08:54:25.783Z,80.80
2022-08-24T08:55:25.783Z,80.24
2022-08-24T08:56:25.787Z,81.07
2022-08-24T08:57:25.783Z,82.05
2022-08-24T08:58:25.781Z,84.09
2022-08-24T08:59:25.780Z,85.33
2022-08-24T09:00:25.780Z,86.03
2022-08-24T09:01:25.781Z,85.69
2022-08-24T09:02:25.780Z,84.49
2022-08-24T09:03:25.777Z,84.93
2022-08-24T09:04:25.832Z,85.13
2022-08-24T09:05:25.779Z,85.19
2022-08-24T09:06:25.778Z,84.29
2022-08-24T09:07:25.780Z,84.45
2022-08-24T09:08:25.776Z,82.75
2022-08-24T09:09:25.780Z,83.65
2022-08-24T09:10:25.785Z,82.21
2022-08-24T09:11:25.776Z,82.41
2022-08-24T09:12:25.777Z,81.07
2022-08-24T09:13:25.776Z,81.12
2022-08-24T09:14:25.774Z,81.61
2022-08-24T09:15:25.779Z,82.11
2022-08-24T09:16:25.807Z,82.01
2022-08-24T09:17:25.774Z,81.37
2022-08-24T09:18:25.774Z,81.81
2022-08-24T09:19:25.965Z,81.81
2022-08-24T09:20:25.773Z,82.31
2022-08-24T09:21:25.772Z,82.31
2022-08-24T09:22:25.769Z,82.21
2022-08-24T09:23:25.775Z,82.41
2022-08-24T09:24:25.774Z,81.51
2022-08-24T09:25:26.624Z,82.71
2022-08-24T09:26:25.771Z,82.91
2022-08-24T09:27:25.773Z,82.07
2022-08-24T09:28:25.775Z,81.10
2022-08-24T09:29:25.776Z,78.90
2022-08-24T09:30:25.862Z,78.54
2022-08-24T09:31:25.984Z,79.58
2022-08-24T09:32:25.772Z,79.97
2022-08-24T09:33:25.774Z,80.58
2022-08-24T09:34:25.770Z,80.38
2022-08-24T09:35:26.803Z,81.71
2022-08-24T09:36:25.773Z,81.31
2022-08-24T09:37:25.776Z,81.27
2022-08-24T09:38:25.773Z,81.37
2022-08-24T09:39:25.774Z,81.13
2022-08-24T09:40:25.810Z,80.74
2022-08-24T09:41:25.774Z,80.74
2022-08-24T09:42:25.789Z,82.07
2022-08-24T09:43:25.774Z,82.47
2022-08-24T09:44:25.768Z,81.77
2022-08-24T09:45:25.773Z,81.77
2022-08-24T09:46:25.814Z,81.84
2022-08-24T09:47:25.774Z,81.34
2022-08-24T09:48:25.775Z,80.40
2022-08-24T09:49:25.774Z,79.70
2022-08-24T09:50:25.841Z,79.00
2022-08-24T09:51:25.773Z,78.80
2022-08-24T09:52:25.775Z,78.50
2022-08-24T09:53:25.774Z,78.80
2022-08-24T09:54:25.768Z,79.80
2022-08-24T09:55:25.772Z,80.34
2022-08-24T09:56:25.773Z,81.43
2022-08-24T09:57:44.137Z,80.38
2022-08-24T09:58:25.771Z,81.24
2022-08-24T09:59:25.772Z,81.84
2022-08-24T10:00:25.773Z,79.70
2022-08-24T10:01:25.856Z,79.30
2022-08-24T10:02:25.799Z,79.20
2022-08-24T10:03:36.098Z,80.24
2022-08-24T10:04:25.834Z,81.27
2022-08-24T10:05:25.859Z,80.98
2022-08-24T10:06:25.774Z,81.67
2022-08-24T10:07:25.775Z,80.68
2022-08-24T10:08:25.775Z,81.18
2022-08-24T10:09:25.776Z,81.37
2022-08-24T10:10:25.779Z,81.24
2022-08-24T10:11:25.775Z,80.54
2022-08-24T10:12:25.775Z,80.34
2022-08-24T10:13:25.779Z,80.77
2022-08-24T10:14:25.777Z,80.98
2022-08-24T10:15:25.778Z,81.77
2022-08-24T10:16:25.861Z,80.68
2022-08-24T10:17:25.777Z,81.27
2022-08-24T10:18:25.775Z,81.67
2022-08-24T10:19:25.776Z,81.37
2022-08-24T10:20:25.775Z,81.18
2022-08-24T10:21:25.777Z,81.18
2022-08-24T10:22:25.781Z,80.62
2022-08-24T10:23:25.775Z,81.77
2022-08-24T10:24:29.570Z,81.07
2022-08-24T10:25:25.773Z,81.77
2022-08-24T10:26:25.775Z,81.77
2022-08-24T10:27:25.773Z,82.01
2022-08-24T10:28:25.775Z,82.47
2022-08-24T10:29:25.775Z,82.47
2022-08-24T10:30:27.954Z,82.14
2022-08-24T10:31:25.814Z,81.76
2022-08-24T10:32:25.777Z,79.96
2022-08-24T10:33:25.776Z,78.92
2022-08-24T10:34:25.775Z,78.23
2022-08-24T10:35:25.783Z,78.03
2022-08-24T10:36:25.778Z,77.83
2022-08-24T10:37:25.777Z,77.69
2022-08-24T10:38:25.777Z,78.03
2022-08-24T10:39:25.775Z,77.69
2022-08-24T10:40:25.812Z,77.80
2022-08-24T10:41:25.776Z,76.90
2022-08-24T10:42:25.777Z,78.03
2022-08-24T10:43:26.140Z,78.56
2022-08-24T10:44:25.776Z,79.16
2022-08-24T10:45:25.821Z,79.06
2022-08-24T10:46:25.778Z,78.23
2022-08-24T10:47:25.778Z,77.83
2022-08-24T10:48:25.777Z,78.39
2022-08-24T10:49:25.778Z,78.13
2022-08-24T10:50:30.859Z,78.49
2022-08-24T10:51:25.782Z,76.60
2022-08-24T10:52:25.780Z,76.40
2022-08-24T10:53:25.781Z,76.86
2022-08-24T10:54:25.781Z,76.66
2022-08-24T10:55:25.781Z,76.92
2022-08-24T10:56:25.780Z,76.86
2022-08-24T10:57:25.782Z,77.33
2022-08-24T10:58:25.783Z,78.23
2022-08-24T10:59:25.783Z,78.86
2022-08-24T11:00:25.784Z,78.86
2022-08-24T11:01:25.834Z,78.77
2022-08-24T11:02:25.818Z,78.86
2022-08-24T11:03:28.050Z,79.00
2022-08-24T11:04:25.784Z,78.86
2022-08-24T11:05:25.786Z,78.17
2022-08-24T11:06:25.784Z,78.37
2022-08-24T11:07:25.784Z,77.87
2022-08-24T11:08:25.785Z,78.41
2022-08-24T11:09:25.791Z,78.60
2022-08-24T11:10:25.788Z,78.56
2022-08-24T11:11:25.787Z,77.97
2022-08-24T11:12:25.786Z,77.37
2022-08-24T11:13:25.791Z,76.97
2022-08-24T11:14:25.784Z,78.23
2022-08-24T11:15:25.788Z,76.87
2022-08-24T11:16:25.871Z,77.67
2022-08-24T11:17:25.790Z,78.07
2022-08-24T11:18:25.785Z,77.93
2022-08-24T11:19:25.787Z,77.73
2022-08-24T11:20:25.788Z,75.64
2022-08-24T11:21:25.790Z,75.34
2022-08-24T11:22:25.787Z,75.64
2022-08-24T11:23:31.033Z,75.31
2022-08-24T11:24:25.790Z,75.31
2022-08-24T11:25:25.793Z,76.10
2022-08-24T11:26:25.788Z,75.16
2022-08-24T11:27:25.789Z,75.13
2022-08-24T11:28:25.788Z,75.40
2022-08-24T11:29:25.791Z,72.71
2022-08-24T11:30:25.789Z,72.97
2022-08-24T11:31:25.858Z,72.41
2022-08-24T11:32:25.791Z,73.44
2022-08-24T11:33:25.790Z,73.74
2022-08-24T11:34:25.792Z,75.03
2022-08-24T11:35:25.791Z,75.33
2022-08-24T11:36:25.792Z,74.60
2022-08-24T11:37:29.161Z,72.97
2022-08-24T11:38:25.791Z,71.75
2022-08-24T11:39:25.793Z,71.68
2022-08-24T11:40:25.877Z,72.64
2022-08-24T11:41:25.794Z,70.95
2022-08-24T11:42:29.210Z,70.22
2022-08-24T11:43:25.795Z,70.32
2022-08-24T11:44:25.794Z,70.02
2022-08-24T11:45:25.795Z,69.72
2022-08-24T11:46:25.847Z,70.22
2022-08-24T11:47:25.798Z,68.83
2022-08-24T11:48:28.471Z,69.82
2022-08-24T11:49:25.800Z,70.32
2022-08-24T11:50:25.796Z,70.18
2022-08-24T11:51:25.809Z,68.33
2022-08-24T11:52:25.800Z,68.43
2022-08-24T11:53:25.799Z,69.29
2022-08-24T11:54:25.802Z,69.89
2022-08-24T11:55:25.802Z,68.80
2022-08-24T11:56:25.907Z,68.66
2022-08-24T11:57:25.805Z,68.76
2022-08-24T11:58:25.803Z,67.08
2022-08-24T11:59:25.803Z,68.10
2022-08-24T12:00:25.806Z,68.76
2022-08-24T12:01:25.808Z,68.50
2022-08-24T12:02:25.938Z,65.92
2022-08-24T12:03:25.950Z,65.62
2022-08-24T12:04:25.809Z,65.82
2022-08-24T12:05:25.809Z,65.88
2022-08-24T12:06:27.629Z,66.55
2022-08-24T12:07:25.811Z,65.48
2022-08-24T12:08:25.811Z,66.88
2022-08-24T12:09:25.815Z,66.55
2022-08-24T12:10:28.541Z,65.72
2022-08-24T12:11:25.817Z,65.62
2022-08-24T12:12:25.822Z,65.39
2022-08-24T12:13:25.817Z,64.30
2022-08-24T12:14:25.820Z,64.73
2022-08-24T12:15:25.818Z,64.99
2022-08-24T12:16:25.909Z,64.17
2022-08-24T12:17:25.821Z,63.67
2022-08-24T12:18:25.821Z,64.20
2022-08-24T12:19:25.821Z,64.62
2022-08-24T12:20:25.830Z,64.89
2022-08-24T12:21:25.825Z,64.89
2022-08-24T12:22:25.821Z,64.89
2022-08-24T12:23:25.822Z,64.89
2022-08-24T12:24:25.827Z,65.29
2022-08-24T12:25:25.830Z,64.70
2022-08-24T12:26:25.828Z,65.56
2022-08-24T12:27:25.829Z,64.89
2022-08-24T12:28:25.832Z,65.26
2022-08-24T12:29:25.830Z,64.14
2022-08-24T12:30:25.831Z,63.57
2022-08-24T12:31:25.878Z,64.96
2022-08-24T12:32:25.836Z,65.69
2022-08-24T12:33:25.838Z,65.39
2022-08-24T12:34:25.834Z,65.75
2022-08-24T12:35:25.835Z,65.46
2022-08-24T12:36:25.837Z,63.57
2022-08-24T12:37:25.843Z,63.87
2022-08-24T12:38:25.840Z,63.84
2022-08-24T12:39:25.841Z,63.21
2022-08-24T12:40:25.874Z,63.61
2022-08-24T12:41:25.844Z,62.79
2022-08-24T12:42:25.847Z,63.28
2022-08-24T12:43:25.847Z,63.39
2022-08-24T12:44:25.851Z,60.08
2022-08-24T12:45:25.853Z,61.47
2022-08-24T12:46:25.913Z,59.09
2022-08-24T12:47:25.853Z,59.00
2022-08-24T12:48:25.853Z,59.00
2022-08-24T12:49:25.858Z,59.19
2022-08-24T12:50:25.857Z,58.70
2022-08-24T12:51:25.860Z,60.28
2022-08-24T12:52:25.860Z,60.58
2022-08-24T12:53:26.429Z,59.17
2022-08-24T12:54:25.862Z,59.66